sensor_id;sensor_type;location;lat;lon;timestamp;pressure;altitude;pressure_sealevel;temperature;humidity
75650;BME280;64245;51.282;22.494;2023-04-28T00:02:04;99568.38;;;2.89;93.46
75650;BME280;64245;51.282;22.494;2023-04-28T00:04:29;99557.59;;;2.76;93.50
75650;BME280;64245;51.282;22.494;2023-04-28T00:06:55;99555.00;;;2.60;93.78
75650;BME280;64245;51.282;22.494;2023-04-28T00:09:20;99569.47;;;2.55;94.71
75650;BME280;64245;51.282;22.494;2023-04-28T00:11:46;99575.31;;;2.61;94.93
75650;BME280;64245;51.282;22.494;2023-04-28T00:14:12;99595.19;;;2.70;94.17
75650;BME280;64245;51.282;22.494;2023-04-28T00:16:38;99571.75;;;2.31;95.05
75650;BME280;64245;51.282;22.494;2023-04-28T00:19:03;99581.16;;;2.36;94.87
75650;BME280;64245;51.282;22.494;2023-04-28T00:21:29;99567.44;;;2.13;95.82
75650;BME280;64245;51.282;22.494;2023-04-28T00:23:56;99572.25;;;2.06;95.98
75650;BME280;64245;51.282;22.494;2023-04-28T00:26:22;99574.66;;;2.11;94.61
75650;BME280;64245;51.282;22.494;2023-04-28T00:28:47;99587.66;;;2.15;93.99
75650;BME280;64245;51.282;22.494;2023-04-28T00:31:14;99580.97;;;2.08;93.81
75650;BME280;64245;51.282;22.494;2023-04-28T00:33:40;99582.25;;;2.01;94.55
75650;BME280;64245;51.282;22.494;2023-04-28T00:36:09;99582.31;;;1.84;95.98
75650;BME280;64245;51.282;22.494;2023-04-28T00:38:35;99582.63;;;1.78;96.11
75650;BME280;64245;51.282;22.494;2023-04-28T00:41:01;99577.31;;;1.78;95.65
75650;BME280;64245;51.282;22.494;2023-04-28T00:43:27;99591.47;;;1.78;96.98
75650;BME280;64245;51.282;22.494;2023-04-28T00:45:53;99583.47;;;1.62;96.68
75650;BME280;64245;51.282;22.494;2023-04-28T00:48:19;99591.72;;;1.56;96.80
75650;BME280;64245;51.282;22.494;2023-04-28T00:50:46;99594.16;;;1.61;97.14
75650;BME280;64245;51.282;22.494;2023-04-28T00:53:12;99575.47;;;1.29;97.77
75650;BME280;64245;51.282;22.494;2023-04-28T00:55:39;99587.78;;;1.48;97.71
75650;BME280;64245;51.282;22.494;2023-04-28T00:58:05;99585.53;;;1.23;98.19
75650;BME280;64245;51.282;22.494;2023-04-28T01:00:32;99581.31;;;1.19;98.73
75650;BME280;64245;51.282;22.494;2023-04-28T01:02:58;99587.81;;;1.13;98.05
75650;BME280;64245;51.282;22.494;2023-04-28T01:05:24;99602.00;;;1.12;99.55
75650;BME280;64245;51.282;22.494;2023-04-28T01:07:51;99584.19;;;0.80;99.29
75650;BME280;64245;51.282;22.494;2023-04-28T01:10:18;99577.06;;;0.63;99.59
75650;BME280;64245;51.282;22.494;2023-04-28T01:12:43;99592.69;;;0.69;100.00
75650;BME280;64245;51.282;22.494;2023-04-28T01:15:14;99575.78;;;0.72;99.70
75650;BME280;64245;51.282;22.494;2023-04-28T01:17:40;99574.31;;;0.83;99.57
75650;BME280;64245;51.282;22.494;2023-04-28T01:20:07;99570.84;;;0.64;99.57
75650;BME280;64245;51.282;22.494;2023-04-28T01:22:33;99581.31;;;0.84;99.32
75650;BME280;64245;51.282;22.494;2023-04-28T01:24:59;99576.84;;;0.67;99.65
75650;BME280;64245;51.282;22.494;2023-04-28T01:27:24;99571.34;;;0.72;99.26
75650;BME280;64245;51.282;22.494;2023-04-28T01:29:50;99577.09;;;0.80;99.49
75650;BME280;64245;51.282;22.494;2023-04-28T01:32:16;99575.56;;;0.76;99.82
75650;BME280;64245;51.282;22.494;2023-04-28T01:34:42;99592.22;;;0.78;100.00
75650;BME280;64245;51.282;22.494;2023-04-28T01:37:07;99590.59;;;0.76;100.00
75650;BME280;64245;51.282;22.494;2023-04-28T01:39:33;99574.91;;;0.54;100.00
75650;BME280;64245;51.282;22.494;2023-04-28T01:41:59;99589.97;;;0.71;100.00
75650;BME280;64245;51.282;22.494;2023-04-28T01:44:25;99571.41;;;0.71;100.00
75650;BME280;64245;51.282;22.494;2023-04-28T01:46:50;99593.53;;;0.69;100.00
75650;BME280;64245;51.282;22.494;2023-04-28T01:49:16;99601.16;;;0.58;100.00
75650;BME280;64245;51.282;22.494;2023-04-28T01:51:42;99581.25;;;0.86;100.00
75650;BME280;64245;51.282;22.494;2023-04-28T01:54:07;99577.28;;;0.58;100.00
75650;BME280;64245;51.282;22.494;2023-04-28T01:56:33;99588.31;;;0.68;100.00
75650;BME280;64245;51.282;22.494;2023-04-28T01:58:59;99584.53;;;0.74;100.00
75650;BME280;64245;51.282;22.494;2023-04-28T02:01:24;99588.97;;;0.90;99.95
75650;BME280;64245;51.282;22.494;2023-04-28T02:03:50;99568.47;;;0.58;100.00
75650;BME280;64245;51.282;22.494;2023-04-28T02:06:16;99584.19;;;0.80;100.00
75650;BME280;64245;51.282;22.494;2023-04-28T02:08:41;99574.00;;;0.72;100.00
75650;BME280;64245;51.282;22.494;2023-04-28T02:11:07;99584.03;;;0.83;100.00
75650;BME280;64245;51.282;22.494;2023-04-28T02:13:33;99614.50;;;1.10;100.00
75650;BME280;64245;51.282;22.494;2023-04-28T02:15:59;99616.06;;;1.14;100.00
75650;BME280;64245;51.282;22.494;2023-04-28T02:18:26;99585.00;;;0.99;100.00
75650;BME280;64245;51.282;22.494;2023-04-28T02:20:51;99602.69;;;1.16;100.00
75650;BME280;64245;51.282;22.494;2023-04-28T02:23:17;99594.06;;;1.12;100.00
75650;BME280;64245;51.282;22.494;2023-04-28T02:25:42;99584.31;;;1.13;100.00
75650;BME280;64245;51.282;22.494;2023-04-28T02:28:08;99609.41;;;1.40;100.00
75650;BME280;64245;51.282;22.494;2023-04-28T02:30:34;99605.72;;;1.43;100.00
75650;BME280;64245;51.282;22.494;2023-04-28T02:32:59;99595.91;;;1.45;100.00
75650;BME280;64245;51.282;22.494;2023-04-28T02:35:25;99598.78;;;1.40;100.00
75650;BME280;64245;51.282;22.494;2023-04-28T02:37:51;99598.25;;;1.51;100.00
75650;BME280;64245;51.282;22.494;2023-04-28T02:40:17;99592.94;;;1.51;100.00
75650;BME280;64245;51.282;22.494;2023-04-28T02:42:43;99610.16;;;1.59;99.67
75650;BME280;64245;51.282;22.494;2023-04-28T02:45:08;99608.75;;;1.69;98.65
75650;BME280;64245;51.282;22.494;2023-04-28T02:47:34;99590.72;;;1.59;99.24
75650;BME280;64245;51.282;22.494;2023-04-28T02:50:00;99624.53;;;1.72;98.87
75650;BME280;64245;51.282;22.494;2023-04-28T02:52:26;99617.44;;;1.89;97.89
75650;BME280;64245;51.282;22.494;2023-04-28T02:54:51;99604.25;;;1.87;98.57
75650;BME280;64245;51.282;22.494;2023-04-28T02:57:19;99590.91;;;1.89;97.05
75650;BME280;64245;51.282;22.494;2023-04-28T02:59:44;99603.56;;;1.84;97.43
75650;BME280;64245;51.282;22.494;2023-04-28T03:02:10;99618.03;;;1.94;98.10
75650;BME280;64245;51.282;22.494;2023-04-28T03:04:37;99594.81;;;1.82;97.97
75650;BME280;64245;51.282;22.494;2023-04-28T03:07:03;99606.59;;;1.76;99.01
75650;BME280;64245;51.282;22.494;2023-04-28T03:09:28;99598.50;;;1.95;98.73
75650;BME280;64245;51.282;22.494;2023-04-28T03:11:56;99597.31;;;2.00;97.41
75650;BME280;64245;51.282;22.494;2023-04-28T03:14:21;99617.66;;;2.17;95.88
75650;BME280;64245;51.282;22.494;2023-04-28T03:16:47;99622.25;;;1.98;96.05
75650;BME280;64245;51.282;22.494;2023-04-28T03:19:13;99612.31;;;1.86;97.10
75650;BME280;64245;51.282;22.494;2023-04-28T03:21:38;99616.28;;;1.77;97.21
75650;BME280;64245;51.282;22.494;2023-04-28T03:24:04;99636.94;;;1.72;97.87
75650;BME280;64245;51.282;22.494;2023-04-28T03:26:31;99638.19;;;1.65;98.03
75650;BME280;64245;51.282;22.494;2023-04-28T03:28:56;99616.81;;;1.51;98.32
75650;BME280;64245;51.282;22.494;2023-04-28T03:31:22;99608.41;;;1.25;98.66
75650;BME280;64245;51.282;22.494;2023-04-28T03:33:48;99619.84;;;1.43;98.68
75650;BME280;64245;51.282;22.494;2023-04-28T03:36:14;99596.78;;;1.11;99.03
75650;BME280;64245;51.282;22.494;2023-04-28T03:38:40;99645.91;;;1.35;99.50
75650;BME280;64245;51.282;22.494;2023-04-28T03:41:07;99633.00;;;1.29;99.77
75650;BME280;64245;51.282;22.494;2023-04-28T03:43:32;99647.41;;;1.23;100.00
75650;BME280;64245;51.282;22.494;2023-04-28T03:46:00;99635.31;;;1.18;100.00
75650;BME280;64245;51.282;22.494;2023-04-28T03:48:25;99629.78;;;1.05;100.00
75650;BME280;64245;51.282;22.494;2023-04-28T03:50:51;99649.34;;;1.02;100.00
75650;BME280;64245;51.282;22.494;2023-04-28T03:53:17;99629.38;;;0.95;100.00
75650;BME280;64245;51.282;22.494;2023-04-28T03:55:43;99652.88;;;1.20;100.00
75650;BME280;64245;51.282;22.494;2023-04-28T03:58:08;99648.97;;;1.10;100.00
75650;BME280;64245;51.282;22.494;2023-04-28T04:00:34;99627.69;;;1.12;100.00
75650;BME280;64245;51.282;22.494;2023-04-28T04:03:00;99653.56;;;1.24;100.00
75650;BME280;64245;51.282;22.494;2023-04-28T04:05:26;99660.75;;;1.39;100.00
75650;BME280;64245;51.282;22.494;2023-04-28T04:07:51;99635.22;;;1.36;100.00
75650;BME280;64245;51.282;22.494;2023-04-28T04:10:17;99640.94;;;1.46;100.00
75650;BME280;64245;51.282;22.494;2023-04-28T04:12:43;99634.47;;;1.52;99.25
75650;BME280;64245;51.282;22.494;2023-04-28T04:15:11;99663.00;;;1.64;99.84
75650;BME280;64245;51.282;22.494;2023-04-28T04:17:37;99655.44;;;1.56;100.00
75650;BME280;64245;51.282;22.494;2023-04-28T04:20:03;99662.22;;;1.79;98.52
75650;BME280;64245;51.282;22.494;2023-04-28T04:22:29;99645.50;;;1.77;97.88
75650;BME280;64245;51.282;22.494;2023-04-28T04:24:55;99663.53;;;1.88;97.88
75650;BME280;64245;51.282;22.494;2023-04-28T04:27:20;99660.41;;;2.13;96.55
75650;BME280;64245;51.282;22.494;2023-04-28T04:29:47;99645.47;;;1.94;96.42
75650;BME280;64245;51.282;22.494;2023-04-28T04:32:13;99664.63;;;2.17;96.10
75650;BME280;64245;51.282;22.494;2023-04-28T04:34:39;99677.59;;;2.38;95.34
75650;BME280;64245;51.282;22.494;2023-04-28T04:37:04;99643.75;;;2.26;94.28
75650;BME280;64245;51.282;22.494;2023-04-28T04:39:30;99649.47;;;2.34;94.05
75650;BME280;64245;51.282;22.494;2023-04-28T04:41:56;99676.09;;;2.50;93.66
75650;BME280;64245;51.282;22.494;2023-04-28T04:44:22;99656.72;;;2.48;92.72
75650;BME280;64245;51.282;22.494;2023-04-28T04:46:47;99670.00;;;2.48;93.04
75650;BME280;64245;51.282;22.494;2023-04-28T04:49:13;99649.59;;;2.64;93.48
75650;BME280;64245;51.282;22.494;2023-04-28T04:51:39;99657.44;;;2.97;91.86
75650;BME280;64245;51.282;22.494;2023-04-28T04:54:04;99664.44;;;2.84;92.39
75650;BME280;64245;51.282;22.494;2023-04-28T04:56:30;99657.78;;;3.07;88.91
75650;BME280;64245;51.282;22.494;2023-04-28T04:58:56;99657.88;;;3.35;85.49
75650;BME280;64245;51.282;22.494;2023-04-28T05:01:22;99668.03;;;3.59;85.42
75650;BME280;64245;51.282;22.494;2023-04-28T05:03:47;99669.38;;;3.66;86.86
75650;BME280;64245;51.282;22.494;2023-04-28T05:06:13;99667.84;;;3.62;83.40
75650;BME280;64245;51.282;22.494;2023-04-28T05:08:39;99677.41;;;3.80;82.91
75650;BME280;64245;51.282;22.494;2023-04-28T05:11:04;99655.91;;;3.83;81.48
75650;BME280;64245;51.282;22.494;2023-04-28T05:13:30;99673.03;;;4.07;80.34
75650;BME280;64245;51.282;22.494;2023-04-28T05:15:56;99672.19;;;4.07;81.18
75650;BME280;64245;51.282;22.494;2023-04-28T05:18:22;99657.72;;;4.25;79.68
75650;BME280;64245;51.282;22.494;2023-04-28T05:20:47;99666.47;;;4.27;78.56
75650;BME280;64245;51.282;22.494;2023-04-28T05:23:13;99693.16;;;4.41;79.04
75650;BME280;64245;51.282;22.494;2023-04-28T05:25:38;99667.22;;;4.43;79.35
75650;BME280;64245;51.282;22.494;2023-04-28T05:28:08;99673.81;;;4.38;80.01
75650;BME280;64245;51.282;22.494;2023-04-28T05:30:34;99680.88;;;4.39;80.64
75650;BME280;64245;51.282;22.494;2023-04-28T05:32:59;99676.28;;;4.55;78.86
75650;BME280;64245;51.282;22.494;2023-04-28T05:35:25;99691.25;;;4.84;77.32
75650;BME280;64245;51.282;22.494;2023-04-28T05:37:51;99679.28;;;4.77;74.46
75650;BME280;64245;51.282;22.494;2023-04-28T05:40:17;99694.25;;;5.07;nan
75650;BME280;64245;51.282;22.494;2023-04-28T05:42:43;99681.06;;;4.91;75.33
75650;BME280;64245;51.282;22.494;2023-04-28T05:45:09;99681.16;;;4.90;74.62
75650;BME280;64245;51.282;22.494;2023-04-28T05:47:35;99699.69;;;5.19;74.06
75650;BME280;64245;51.282;22.494;2023-04-28T05:50:01;99670.44;;;5.04;73.85
75650;BME280;64245;51.282;22.494;2023-04-28T05:52:26;99683.31;;;5.24;72.65
75650;BME280;64245;51.282;22.494;2023-04-28T05:54:52;99674.28;;;5.39;71.88
75650;BME280;64245;51.282;22.494;2023-04-28T05:57:18;99707.06;;;5.68;71.52
75650;BME280;64245;51.282;22.494;2023-04-28T05:59:43;99691.34;;;5.91;71.28
75650;BME280;64245;51.282;22.494;2023-04-28T06:02:10;99704.69;;;6.03;71.16
75650;BME280;64245;51.282;22.494;2023-04-28T06:04:35;99679.41;;;5.82;68.05
75650;BME280;64245;51.282;22.494;2023-04-28T06:07:01;99698.41;;;6.04;66.41
75650;BME280;64245;51.282;22.494;2023-04-28T06:09:26;99692.09;;;6.05;65.50
75650;BME280;64245;51.282;22.494;2023-04-28T06:11:52;99713.69;;;6.28;66.05
75650;BME280;64245;51.282;22.494;2023-04-28T06:14:18;99686.84;;;6.16;67.04
75650;BME280;64245;51.282;22.494;2023-04-28T06:16:44;99690.81;;;6.23;63.22
75650;BME280;64245;51.282;22.494;2023-04-28T06:19:09;99691.25;;;6.30;64.72
75650;BME280;64245;51.282;22.494;2023-04-28T06:21:35;99702.78;;;6.43;66.30
75650;BME280;64245;51.282;22.494;2023-04-28T06:24:01;99690.16;;;6.45;63.99
75650;BME280;64245;51.282;22.494;2023-04-28T06:26:27;99691.53;;;6.51;63.05
75650;BME280;64245;51.282;22.494;2023-04-28T06:28:53;99681.56;;;6.66;61.47
75650;BME280;64245;51.282;22.494;2023-04-28T06:31:19;99687.00;;;6.64;61.23
75650;BME280;64245;51.282;22.494;2023-04-28T06:33:44;99672.84;;;6.75;59.51
75650;BME280;64245;51.282;22.494;2023-04-28T06:36:10;99685.16;;;6.90;59.09
75650;BME280;64245;51.282;22.494;2023-04-28T06:38:39;99695.81;;;7.03;59.59
75650;BME280;64245;51.282;22.494;2023-04-28T06:41:05;99698.94;;;7.20;57.27
75650;BME280;64245;51.282;22.494;2023-04-28T06:43:31;99709.38;;;7.36;58.55
75650;BME280;64245;51.282;22.494;2023-04-28T06:45:58;99696.66;;;7.51;56.63
75650;BME280;64245;51.282;22.494;2023-04-28T06:48:23;99690.06;;;7.44;54.39
75650;BME280;64245;51.282;22.494;2023-04-28T06:50:50;99694.63;;;7.31;56.28
75650;BME280;64245;51.282;22.494;2023-04-28T06:53:16;99710.97;;;7.39;56.32
75650;BME280;64245;51.282;22.494;2023-04-28T06:55:42;99720.00;;;7.73;53.41
75650;BME280;64245;51.282;22.494;2023-04-28T06:58:07;99704.56;;;7.76;49.05
75650;BME280;64245;51.282;22.494;2023-04-28T07:00:33;99705.19;;;7.80;51.60
75650;BME280;64245;51.282;22.494;2023-04-28T07:02:59;99719.75;;;8.00;55.89
75650;BME280;64245;51.282;22.494;2023-04-28T07:05:26;99707.72;;;8.05;55.65
75650;BME280;64245;51.282;22.494;2023-04-28T07:07:53;99713.50;;;8.34;54.55
75650;BME280;64245;51.282;22.494;2023-04-28T07:10:19;99694.19;;;8.07;47.64
75650;BME280;64245;51.282;22.494;2023-04-28T07:12:45;99727.25;;;8.18;44.77
75650;BME280;64245;51.282;22.494;2023-04-28T07:15:11;99706.41;;;8.22;46.45
75650;BME280;64245;51.282;22.494;2023-04-28T07:17:37;99705.47;;;8.34;44.27
75650;BME280;64245;51.282;22.494;2023-04-28T07:20:03;99699.84;;;8.48;44.87
75650;BME280;64245;51.282;22.494;2023-04-28T07:22:29;99694.25;;;8.40;43.59
75650;BME280;64245;51.282;22.494;2023-04-28T07:24:56;99706.81;;;8.73;42.49
75650;BME280;64245;51.282;22.494;2023-04-28T07:27:21;99707.00;;;9.15;45.98
75650;BME280;64245;51.282;22.494;2023-04-28T07:29:47;99690.94;;;8.92;44.83
75650;BME280;64245;51.282;22.494;2023-04-28T07:32:13;99706.72;;;9.40;46.65
75650;BME280;64245;51.282;22.494;2023-04-28T07:34:39;99693.56;;;9.58;38.77
75650;BME280;64245;51.282;22.494;2023-04-28T07:37:04;99685.25;;;9.61;40.83
75650;BME280;64245;51.282;22.494;2023-04-28T07:39:31;99712.59;;;9.98;41.66
75650;BME280;64245;51.282;22.494;2023-04-28T07:41:58;99686.72;;;10.07;41.57
75650;BME280;64245;51.282;22.494;2023-04-28T07:44:24;99684.22;;;10.15;39.12
75650;BME280;64245;51.282;22.494;2023-04-28T07:46:50;99690.19;;;9.77;38.94
75650;BME280;64245;51.282;22.494;2023-04-28T07:49:16;99702.38;;;9.60;39.63
75650;BME280;64245;51.282;22.494;2023-04-28T07:51:42;99705.75;;;9.41;39.05
75650;BME280;64245;51.282;22.494;2023-04-28T07:54:07;99695.97;;;9.29;41.15
75650;BME280;64245;51.282;22.494;2023-04-28T07:56:33;99703.41;;;9.37;37.93
75650;BME280;64245;51.282;22.494;2023-04-28T07:58:59;99703.22;;;9.17;38.50
75650;BME280;64245;51.282;22.494;2023-04-28T08:01:25;99686.00;;;9.09;39.92
75650;BME280;64245;51.282;22.494;2023-04-28T08:03:51;99714.97;;;9.05;39.87
75650;BME280;64245;51.282;22.494;2023-04-28T08:06:16;99696.19;;;8.94;39.41
75650;BME280;64245;51.282;22.494;2023-04-28T08:08:42;99701.69;;;9.04;39.58
75650;BME280;64245;51.282;22.494;2023-04-28T08:11:08;99707.75;;;9.17;41.31
75650;BME280;64245;51.282;22.494;2023-04-28T08:13:33;99687.38;;;8.92;37.01
75650;BME280;64245;51.282;22.494;2023-04-28T08:15:59;99721.03;;;9.29;36.61
75650;BME280;64245;51.282;22.494;2023-04-28T08:18:26;99693.59;;;9.47;37.67
75650;BME280;64245;51.282;22.494;2023-04-28T08:20:52;99689.69;;;9.51;37.92
75650;BME280;64245;51.282;22.494;2023-04-28T08:23:17;99685.09;;;9.30;37.52
75650;BME280;64245;51.282;22.494;2023-04-28T08:25:43;99683.63;;;9.38;39.00
75650;BME280;64245;51.282;22.494;2023-04-28T08:28:09;99690.59;;;9.40;38.66
75650;BME280;64245;51.282;22.494;2023-04-28T08:30:35;99685.78;;;9.44;39.27
75650;BME280;64245;51.282;22.494;2023-04-28T08:33:03;99679.72;;;9.30;37.11
75650;BME280;64245;51.282;22.494;2023-04-28T08:35:29;99695.66;;;9.22;35.46
75650;BME280;64245;51.282;22.494;2023-04-28T08:37:55;99668.84;;;9.00;35.89
75650;BME280;64245;51.282;22.494;2023-04-28T08:40:21;99691.88;;;9.46;36.21
75650;BME280;64245;51.282;22.494;2023-04-28T08:42:48;99685.22;;;9.93;36.41
75650;BME280;64245;51.282;22.494;2023-04-28T08:45:14;99685.72;;;10.49;37.73
75650;BME280;64245;51.282;22.494;2023-04-28T08:47:41;99698.44;;;10.78;35.30
75650;BME280;64245;51.282;22.494;2023-04-28T08:50:11;99687.56;;;10.49;35.63
75650;BME280;64245;51.282;22.494;2023-04-28T08:52:38;99686.22;;;10.64;35.74
75650;BME280;64245;51.282;22.494;2023-04-28T08:55:08;99667.88;;;10.88;36.02
75650;BME280;64245;51.282;22.494;2023-04-28T08:57:45;99693.91;;;10.78;34.54
75650;BME280;64245;51.282;22.494;2023-04-28T09:00:13;99685.88;;;10.27;34.75
75650;BME280;64245;51.282;22.494;2023-04-28T09:02:39;99686.69;;;10.79;37.28
75650;BME280;64245;51.282;22.494;2023-04-28T09:05:08;99690.88;;;11.02;36.84
75650;BME280;64245;51.282;22.494;2023-04-28T09:07:34;99665.00;;;10.80;35.44
75650;BME280;64245;51.282;22.494;2023-04-28T09:10:23;99677.53;;;11.00;36.30
75650;BME280;64245;51.282;22.494;2023-04-28T09:12:51;99666.97;;;10.78;35.49
75650;BME280;64245;51.282;22.494;2023-04-28T09:15:30;99685.84;;;10.48;36.37
75650;BME280;64245;51.282;22.494;2023-04-28T09:17:57;99685.94;;;10.36;35.43
75650;BME280;64245;51.282;22.494;2023-04-28T09:20:27;99665.91;;;11.00;36.11
75650;BME280;64245;51.282;22.494;2023-04-28T09:22:54;99674.81;;;11.50;36.62
75650;BME280;64245;51.282;22.494;2023-04-28T09:25:21;99651.22;;;11.33;37.57
75650;BME280;64245;51.282;22.494;2023-04-28T09:27:48;99651.22;;;11.14;35.06
75650;BME280;64245;51.282;22.494;2023-04-28T09:30:15;99673.22;;;11.28;34.88
75650;BME280;64245;51.282;22.494;2023-04-28T09:32:41;99663.88;;;10.83;36.99
75650;BME280;64245;51.282;22.494;2023-04-28T09:35:07;99673.00;;;11.01;37.00
75650;BME280;64245;51.282;22.494;2023-04-28T09:37:34;99663.31;;;10.49;37.17
75650;BME280;64245;51.282;22.494;2023-04-28T09:40:08;99677.66;;;10.59;37.33
75650;BME280;64245;51.282;22.494;2023-04-28T09:42:42;99656.03;;;10.70;38.00
75650;BME280;64245;51.282;22.494;2023-04-28T09:45:14;99676.22;;;10.85;36.72
75650;BME280;64245;51.282;22.494;2023-04-28T09:47:43;99658.97;;;10.57;36.01
75650;BME280;64245;51.282;22.494;2023-04-28T09:50:12;99645.50;;;10.27;37.37
75650;BME280;64245;51.282;22.494;2023-04-28T09:52:43;99633.25;;;10.44;38.11
75650;BME280;64245;51.282;22.494;2023-04-28T09:55:11;99663.69;;;10.65;38.06
75650;BME280;64245;51.282;22.494;2023-04-28T09:57:38;99658.16;;;10.66;38.10
75650;BME280;64245;51.282;22.494;2023-04-28T10:00:06;99639.94;;;10.89;37.89
75650;BME280;64245;51.282;22.494;2023-04-28T10:02:35;99635.03;;;11.14;37.43
75650;BME280;64245;51.282;22.494;2023-04-28T10:05:01;99641.22;;;10.24;37.85
75650;BME280;64245;51.282;22.494;2023-04-28T10:07:28;99651.81;;;10.37;38.44
75650;BME280;64245;51.282;22.494;2023-04-28T10:09:55;99650.59;;;10.60;39.02
75650;BME280;64245;51.282;22.494;2023-04-28T10:12:23;99648.88;;;10.90;39.60
75650;BME280;64245;51.282;22.494;2023-04-28T10:14:50;99633.63;;;11.38;39.27
75650;BME280;64245;51.282;22.494;2023-04-28T10:17:20;99651.03;;;12.21;39.75
75650;BME280;64245;51.282;22.494;2023-04-28T10:19:48;99642.72;;;11.86;38.41
75650;BME280;64245;51.282;22.494;2023-04-28T10:22:58;99641.13;;;11.25;38.32
75650;BME280;64245;51.282;22.494;2023-04-28T10:25:32;99634.59;;;11.08;37.34
75650;BME280;64245;51.282;22.494;2023-04-28T10:28:03;99627.84;;;10.74;39.48
75650;BME280;64245;51.282;22.494;2023-04-28T10:30:32;99625.78;;;11.06;39.90
75650;BME280;64245;51.282;22.494;2023-04-28T10:35:44;99631.00;;;10.89;38.81
75650;BME280;64245;51.282;22.494;2023-04-28T10:38:11;99649.50;;;11.22;39.10
75650;BME280;64245;51.282;22.494;2023-04-28T10:40:42;99640.84;;;11.19;38.06
75650;BME280;64245;51.282;22.494;2023-04-28T10:43:10;99634.00;;;10.95;40.66
75650;BME280;64245;51.282;22.494;2023-04-28T10:56:09;99624.25;;;11.23;40.79
75650;BME280;64245;51.282;22.494;2023-04-28T10:58:36;99604.63;;;12.45;40.69
75650;BME280;64245;51.282;22.494;2023-04-28T11:01:30;99604.16;;;13.04;37.64
75650;BME280;64245;51.282;22.494;2023-04-28T11:04:06;99612.69;;;14.06;35.31
75650;BME280;64245;51.282;22.494;2023-04-28T11:06:37;99601.00;;;14.06;38.54
75650;BME280;64245;51.282;22.494;2023-04-28T11:12:02;99601.78;;;15.67;31.70
75650;BME280;64245;51.282;22.494;2023-04-28T11:17:01;99595.81;;;13.69;37.68
75650;BME280;64245;51.282;22.494;2023-04-28T11:19:32;99582.56;;;13.22;37.15
75650;BME280;64245;51.282;22.494;2023-04-28T11:22:05;99588.28;;;12.09;39.83
75650;BME280;64245;51.282;22.494;2023-04-28T11:24:41;99585.19;;;12.32;39.38
75650;BME280;64245;51.282;22.494;2023-04-28T11:27:23;99564.19;;;12.80;39.53
75650;BME280;64245;51.282;22.494;2023-04-28T11:29:49;99585.81;;;13.43;39.45
75650;BME280;64245;51.282;22.494;2023-04-28T11:32:15;99560.13;;;14.93;35.96
75650;BME280;64245;51.282;22.494;2023-04-28T11:34:41;99576.63;;;15.32;34.63
75650;BME280;64245;51.282;22.494;2023-04-28T11:37:06;99554.13;;;14.73;35.03
75650;BME280;64245;51.282;22.494;2023-04-28T11:39:33;99568.47;;;14.24;33.22
75650;BME280;64245;51.282;22.494;2023-04-28T11:42:01;99563.69;;;13.30;34.83
75650;BME280;64245;51.282;22.494;2023-04-28T11:44:29;99564.84;;;13.28;39.34
75650;BME280;64245;51.282;22.494;2023-04-28T11:47:00;99561.69;;;13.32;35.27
75650;BME280;64245;51.282;22.494;2023-04-28T11:49:31;99558.94;;;13.14;37.25
75650;BME280;64245;51.282;22.494;2023-04-28T11:52:05;99552.81;;;13.22;38.58
75650;BME280;64245;51.282;22.494;2023-04-28T11:54:31;99568.97;;;14.27;35.98
75650;BME280;64245;51.282;22.494;2023-04-28T11:56:58;99556.78;;;14.57;36.28
75650;BME280;64245;51.282;22.494;2023-04-28T11:59:31;99573.91;;;14.66;33.95
75650;BME280;64245;51.282;22.494;2023-04-28T12:01:59;99560.63;;;16.35;31.48
75650;BME280;64245;51.282;22.494;2023-04-28T12:04:40;99530.47;;;17.60;34.91
75650;BME280;64245;51.282;22.494;2023-04-28T12:07:14;99551.84;;;19.82;30.28
75650;BME280;64245;51.282;22.494;2023-04-28T12:10:13;99549.44;;;18.94;28.15
75650;BME280;64245;51.282;22.494;2023-04-28T12:12:43;99553.59;;;17.87;27.94
75650;BME280;64245;51.282;22.494;2023-04-28T12:15:10;99549.81;;;16.57;30.19
75650;BME280;64245;51.282;22.494;2023-04-28T12:17:37;99542.53;;;15.46;31.52
75650;BME280;64245;51.282;22.494;2023-04-28T12:20:08;99552.94;;;14.76;30.83
75650;BME280;64245;51.282;22.494;2023-04-28T12:22:45;99547.25;;;14.19;32.41
75650;BME280;64245;51.282;22.494;2023-04-28T12:25:14;99537.50;;;14.68;33.70
75650;BME280;64245;51.282;22.494;2023-04-28T12:27:56;99532.63;;;14.80;35.19
75650;BME280;64245;51.282;22.494;2023-04-28T12:32:48;99530.50;;;13.10;34.24
75650;BME280;64245;51.282;22.494;2023-04-28T12:35:14;99523.09;;;12.95;34.81
75650;BME280;64245;51.282;22.494;2023-04-28T12:37:43;99526.94;;;13.20;36.14
75650;BME280;64245;51.282;22.494;2023-04-28T12:40:09;99524.03;;;15.25;34.59
75650;BME280;64245;51.282;22.494;2023-04-28T12:42:36;99526.63;;;15.67;29.87
75650;BME280;64245;51.282;22.494;2023-04-28T12:45:02;99523.88;;;16.39;31.15
75650;BME280;64245;51.282;22.494;2023-04-28T12:47:28;99505.00;;;18.35;29.36
75650;BME280;64245;51.282;22.494;2023-04-28T12:49:53;99523.22;;;19.14;26.34
75650;BME280;64245;51.282;22.494;2023-04-28T12:52:19;99490.78;;;19.26;26.58
75650;BME280;64245;51.282;22.494;2023-04-28T12:54:46;99506.47;;;19.39;25.50
75650;BME280;64245;51.282;22.494;2023-04-28T12:57:12;99510.25;;;20.15;23.44
75650;BME280;64245;51.282;22.494;2023-04-28T12:59:38;99497.94;;;18.11;26.27
75650;BME280;64245;51.282;22.494;2023-04-28T13:02:04;99495.59;;;16.64;27.32
75650;BME280;64245;51.282;22.494;2023-04-28T13:04:30;99488.88;;;16.36;28.83
75650;BME280;64245;51.282;22.494;2023-04-28T13:06:56;99497.66;;;17.91;27.47
75650;BME280;64245;51.282;22.494;2023-04-28T13:09:23;99484.81;;;18.14;27.46
75650;BME280;64245;51.282;22.494;2023-04-28T13:11:49;99489.19;;;18.74;25.29
75650;BME280;64245;51.282;22.494;2023-04-28T13:14:15;99485.44;;;16.89;27.64
75650;BME280;64245;51.282;22.494;2023-04-28T13:16:40;99487.25;;;16.66;28.21